Time;durP1;ratioP1;P1;durP2;ratioP2;P2;SDS_P1;SDS_P2;PMS_P1;PMS_P2;Temp;Humidity;BMP_temperature;BMP_pressure;BME280_temperature;BME280_humidity;BME280_pressure;Samples;Min_cycle;Max_cycle;Signal;HPM_P1;HPM_P2
2023/05/28 00:02:05;;;;;;;10.95;4.90;;;;;;;15.82;83.85;96153.22;5054269;28;20095;-62
2023/05/28 00:04:33;;;;;;;9.68;4.85;;;;;;;15.82;84.25;96149.72;5054179;28;20048;-64
2023/05/28 00:07:00;;;;;;;6.15;5.22;;;;;;;15.78;84.33;96149.09;5054124;28;20041;-63
2023/05/28 00:09:28;;;;;;;7.38;4.97;;;;;;;15.78;83.94;96155.19;5054140;28;20076;-63
2023/05/28 00:11:56;;;;;;;7.25;4.85;;;;;;;15.80;84.82;96152.47;5053754;28;20131;-63
2023/05/28 00:14:25;;;;;;;11.48;5.25;;;;;;;15.83;85.43;96156.72;5054018;28;20461;-63
2023/05/28 00:16:52;;;;;;;7.10;5.18;;;;;;;15.85;86.37;96152.16;5053961;28;20044;-62
2023/05/28 00:19:19;;;;;;;9.10;4.85;;;;;;;15.83;86.78;96152.25;5053852;28;20056;-64
2023/05/28 00:21:46;;;;;;;6.63;5.10;;;;;;;15.77;86.99;96150.88;5054063;28;20131;-64
2023/05/28 00:24:13;;;;;;;12.52;5.40;;;;;;;15.80;87.67;96147.19;5053924;28;20052;-62
2023/05/28 00:26:40;;;;;;;7.55;5.28;;;;;;;15.83;87.79;96156.72;5053894;28;20666;-64
2023/05/28 00:29:07;;;;;;;7.18;5.07;;;;;;;15.78;87.56;96149.09;5053824;28;20049;-62
2023/05/28 00:31:36;;;;;;;6.45;5.50;;;;;;;15.77;87.23;96150.03;5053659;28;20072;-62
2023/05/28 00:34:03;;;;;;;9.32;5.35;;;;;;;15.72;87.89;96139.81;5053672;28;20045;-63
2023/05/28 00:36:30;;;;;;;6.68;5.70;;;;;;;15.74;88.90;96137.91;5053803;28;20143;-64
2023/05/28 00:38:59;;;;;;;13.98;5.57;;;;;;;15.76;88.83;96130.75;5052912;28;20102;-64
2023/05/28 00:41:26;;;;;;;6.93;4.97;;;;;;;15.77;89.02;96134.22;5053345;28;20060;-63
2023/05/28 00:43:53;;;;;;;7.50;4.93;;;;;;;15.75;89.30;96136.13;5053456;28;20044;-62
2023/05/28 00:46:22;;;;;;;6.22;5.35;;;;;;;15.71;89.23;96124.91;5053540;28;20099;-64
2023/05/28 00:48:51;;;;;;;9.05;5.75;;;;;;;15.74;89.40;96119.44;5053701;28;20490;-63
2023/05/28 00:51:19;;;;;;;6.40;5.13;;;;;;;15.70;89.02;96114.47;5053479;28;20380;-62
2023/05/28 00:53:46;;;;;;;5.47;4.97;;;;;;;15.71;89.69;96109.09;5053529;28;20051;-61
2023/05/28 00:56:15;;;;;;;6.90;5.53;;;;;;;15.70;89.46;96115.31;5053329;28;20520;-63
2023/05/28 00:58:43;;;;;;;5.95;4.85;;;;;;;15.70;89.99;96112.69;5053181;28;20051;-62
2023/05/28 01:01:11;;;;;;;10.38;5.50;;;;;;;15.70;90.23;96111.81;5053210;28;20064;-64
2023/05/28 01:03:39;;;;;;;6.63;5.28;;;;;;;15.69;90.34;96115.41;5053228;28;20091;-61
2023/05/28 01:06:11;;;;;;;6.85;5.38;;;;;;;15.62;90.04;96109.72;5053149;28;20414;-63
2023/05/28 01:08:39;;;;;;;6.30;4.85;;;;;;;15.59;90.53;96102.84;5053204;28;20079;-62
2023/05/28 01:11:08;;;;;;;5.68;5.07;;;;;;;15.59;90.27;96099.38;5052894;28;20049;-61
2023/05/28 01:13:36;;;;;;;6.15;5.00;;;;;;;15.58;90.39;96100.31;5053095;28;20044;-62
2023/05/28 01:16:04;;;;;;;10.20;5.53;;;;;;;15.48;90.22;96094.78;5053011;28;20048;-63
2023/05/28 01:18:33;;;;;;;6.15;5.65;;;;;;;15.47;90.50;96104.47;5053281;28;20048;-63
2023/05/28 01:21:02;;;;;;;7.78;5.82;;;;;;;15.18;89.87;96104.56;5052922;28;20077;-64
2023/05/28 01:23:38;;;;;;;7.53;6.03;;;;;;;15.03;90.84;96106.38;5053156;28;20053;-63
2023/05/28 01:26:07;;;;;;;9.70;6.15;;;;;;;14.98;92.03;96109.31;5053227;28;20077;-62
2023/05/28 01:28:34;;;;;;;7.65;5.63;;;;;;;15.01;92.48;96097.72;5053184;28;20057;-62
2023/05/28 01:31:01;;;;;;;10.55;6.70;;;;;;;15.03;93.20;96094.06;5052871;28;20051;-64
2023/05/28 01:33:28;;;;;;;7.75;6.65;;;;;;;15.06;93.48;96093.03;5052770;28;20080;-62
2023/05/28 01:35:59;;;;;;;9.63;6.60;;;;;;;15.06;93.61;96090.41;5052899;28;20523;-64
2023/05/28 01:38:27;;;;;;;9.88;6.65;;;;;;;15.06;93.33;96084.28;5052894;28;20052;-63
2023/05/28 01:40:57;;;;;;;7.95;6.25;;;;;;;15.10;93.40;96091.88;5052840;28;20139;-64
2023/05/28 01:43:24;;;;;;;9.45;6.35;;;;;;;15.12;93.50;96100.56;5052875;28;20100;-62
2023/05/28 01:45:52;;;;;;;12.55;7.30;;;;;;;15.09;94.40;96097.25;5052850;28;20194;-64
2023/05/28 01:48:19;;;;;;;7.60;6.75;;;;;;;15.12;93.99;96095.28;5052707;28;20560;-63
2023/05/28 01:50:46;;;;;;;9.60;6.90;;;;;;;15.15;94.08;96102.97;5053891;28;20491;-63
2023/05/28 01:53:14;;;;;;;9.65;6.65;;;;;;;15.14;92.70;96106.53;5056906;28;20087;-63
2023/05/28 01:55:41;;;;;;;6.85;6.15;;;;;;;15.09;93.42;96108.66;5056937;28;20044;-63
2023/05/28 01:58:09;;;;;;;9.52;5.38;;;;;;;15.05;92.66;96115.03;5056599;28;20048;-62
2023/05/28 02:00:40;;;;;;;10.30;6.30;;;;;;;14.98;92.73;96109.31;5056414;28;20057;-62
2023/05/28 02:03:11;;;;;;;7.13;5.90;;;;;;;14.95;92.48;96114.78;5056641;28;20122;-62
2023/05/28 02:05:38;;;;;;;7.70;6.05;;;;;;;14.95;94.87;96112.13;5056530;28;20498;-64
2023/05/28 02:08:05;;;;;;;6.22;5.63;;;;;;;14.91;94.41;96114.09;5056517;28;20049;-62
2023/05/28 02:10:32;;;;;;;12.15;5.88;;;;;;;14.93;94.80;96111.38;5056183;28;20140;-62
2023/05/28 02:13:00;;;;;;;8.45;5.78;;;;;;;14.90;94.88;96122.13;5056412;28;20049;-64
2023/05/28 02:15:29;;;;;;;7.38;6.63;;;;;;;14.88;95.38;96122.22;5056424;28;20103;-64
2023/05/28 02:17:56;;;;;;;6.85;6.00;;;;;;;14.83;95.68;96119.00;5056232;28;20479;-64
2023/05/28 02:20:24;;;;;;;8.07;6.25;;;;;;;14.81;96.08;96117.41;5056081;28;20056;-64
2023/05/28 02:22:51;;;;;;;8.13;6.82;;;;;;;14.81;96.88;96112.16;5056157;28;20048;-62
2023/05/28 02:25:18;;;;;;;11.23;6.60;;;;;;;14.84;96.87;96107.53;5056158;28;20525;-62
2023/05/28 02:27:45;;;;;;;6.85;6.10;;;;;;;14.89;96.95;96101.97;5056101;28;20140;-63
2023/05/28 02:30:14;;;;;;;7.63;6.85;;;;;;;14.94;97.09;96096.44;5056081;28;20094;-63
2023/05/28 02:32:43;;;;;;;10.35;6.07;;;;;;;14.98;96.91;96111.09;5055934;28;20049;-62
2023/05/28 02:35:10;;;;;;;7.22;5.82;;;;;;;14.97;96.38;96112.91;5056011;28;20049;-62
2023/05/28 02:37:37;;;;;;;6.35;5.80;;;;;;;14.85;96.33;96118.91;5055906;28;20077;-64
2023/05/28 02:40:05;;;;;;;12.98;6.43;;;;;;;14.80;97.32;96119.19;5055899;28;20052;-62
2023/05/28 02:42:33;;;;;;;6.93;5.90;;;;;;;14.72;98.01;96114.38;5055956;28;20045;-62
2023/05/28 02:45:00;;;;;;;7.60;5.53;;;;;;;14.68;98.10;96120.78;5055783;28;20049;-62
2023/05/28 02:47:27;;;;;;;8.40;5.80;;;;;;;14.63;98.62;96118.41;5055818;28;20486;-61
2023/05/28 02:49:55;;;;;;;7.05;6.38;;;;;;;14.59;99.22;96130.06;5055739;28;20044;-64
2023/05/28 02:52:22;;;;;;;7.47;6.03;;;;;;;14.58;99.21;96128.38;5055863;28;20041;-61
2023/05/28 02:54:49;;;;;;;12.63;7.82;;;;;;;14.64;99.31;96127.16;5055537;28;20049;-64
2023/05/28 02:57:17;;;;;;;9.05;6.22;;;;;;;14.66;99.73;96131.38;5055630;28;20049;-62
2023/05/28 02:59:44;;;;;;;10.48;6.35;;;;;;;14.70;99.07;96128.56;5055426;28;20052;-61
2023/05/28 03:02:11;;;;;;;6.93;6.07;;;;;;;14.66;99.45;96120.84;5054556;28;20052;-63
2023/05/28 03:04:38;;;;;;;6.55;5.22;;;;;;;14.65;99.68;96131.47;5055436;28;20559;-62
2023/05/28 03:07:06;;;;;;;9.43;5.55;;;;;;;14.64;99.51;96124.53;5055452;28;20106;-63
2023/05/28 03:09:33;;;;;;;6.05;5.32;;;;;;;14.58;99.70;96128.38;5055450;28;20053;-62
2023/05/28 03:12:00;;;;;;;7.00;5.07;;;;;;;14.55;100.00;96132.97;5055090;28;20094;-64
2023/05/28 03:14:27;;;;;;;7.53;5.35;;;;;;;14.57;100.00;96128.47;5055221;28;20541;-61
2023/05/28 03:16:54;;;;;;;5.60;5.10;;;;;;;14.61;100.00;96136.09;5055432;28;20088;-63
2023/05/28 03:19:22;;;;;;;5.50;5.00;;;;;;;14.60;99.99;96134.38;5055037;28;20096;-64
2023/05/28 03:21:49;;;;;;;6.10;5.50;;;;;;;14.64;99.88;96141.19;5055032;28;20529;-63
2023/05/28 03:24:17;;;;;;;6.05;5.47;;;;;;;14.69;100.00;96138.25;5055165;28;20071;-63
2023/05/28 03:26:45;;;;;;;8.45;4.72;;;;;;;14.75;100.00;96134.41;5054974;28;20053;-63
2023/05/28 03:29:12;;;;;;;4.80;4.40;;;;;;;14.81;99.69;96127.94;5055283;28;20178;-64
2023/05/28 03:31:45;;;;;;;5.18;4.30;;;;;;;14.89;99.56;96131.81;5055116;28;20493;-64
2023/05/28 03:34:12;;;;;;;6.50;4.05;;;;;;;14.97;99.12;96138.38;5054813;28;20127;-64
2023/05/28 03:36:40;;;;;;;5.05;4.63;;;;;;;14.91;98.84;96143.06;5054920;28;20099;-64
2023/05/28 03:39:07;;;;;;;4.78;4.30;;;;;;;14.96;99.01;96139.31;5054848;28;20045;-61
2023/05/28 03:41:36;;;;;;;5.72;3.60;;;;;;;15.02;98.70;96134.50;5054674;28;20124;-61
2023/05/28 03:44:03;;;;;;;3.42;3.13;;;;;;;15.01;97.83;96130.19;5054659;28;20107;-61
2023/05/28 03:46:30;;;;;;;3.67;3.10;;;;;;;15.06;97.64;96140.44;5054696;28;20111;-62
2023/05/28 03:48:57;;;;;;;2.97;2.55;;;;;;;15.07;96.83;96139.50;5054736;28;20052;-61
2023/05/28 03:51:24;;;;;;;3.72;2.90;;;;;;;15.03;97.53;96135.38;5054528;28;20076;-63
2023/05/28 03:53:52;;;;;;;1.98;1.88;;;;;;;15.07;96.40;96128.09;5054463;28;20518;-62
2023/05/28 03:56:19;;;;;;;2.88;2.40;;;;;;;15.05;97.00;96130.81;5054479;28;20045;-64
2023/05/28 03:58:47;;;;;;;6.10;2.63;;;;;;;14.97;97.45;96138.38;5054321;28;20136;-62
2023/05/28 04:01:15;;;;;;;2.90;2.45;;;;;;;14.87;98.70;96135.47;5054229;28;20095;-60
2023/05/28 04:03:42;;;;;;;4.40;2.40;;;;;;;14.77;99.58;96148.31;5054306;28;20049;-61
2023/05/28 04:06:10;;;;;;;2.35;2.15;;;;;;;14.75;100.00;96150.22;5054290;28;20068;-63
2023/05/28 04:08:37;;;;;;;4.40;2.38;;;;;;;14.68;100.00;96151.50;5054169;28;20045;-63
2023/05/28 04:11:04;;;;;;;2.72;2.50;;;;;;;14.69;100.00;96145.31;5054014;28;20130;-63
2023/05/28 04:13:31;;;;;;;2.97;2.65;;;;;;;14.69;100.00;96145.31;5053882;28;20478;-62
2023/05/28 04:16:00;;;;;;;5.35;2.25;;;;;;;14.69;100.00;96151.41;5053994;28;20084;-62
2023/05/28 04:18:28;;;;;;;2.53;2.10;;;;;;;14.72;100.00;96145.13;5053918;28;20048;-63
2023/05/28 04:20:56;;;;;;;2.72;2.17;;;;;;;14.81;100.00;96152.47;5054138;28;20132;-60
2023/05/28 04:23:23;;;;;;;2.60;2.40;;;;;;;14.91;100.00;96150.13;5054019;28;20418;-63
2023/05/28 04:25:50;;;;;;;3.13;2.60;;;;;;;14.99;100.00;96147.03;5054065;28;20049;-63
2023/05/28 04:28:18;;;;;;;5.40;2.72;;;;;;;15.12;100.00;96152.38;5053792;28;20131;-61
2023/05/28 04:30:46;;;;;;;2.47;2.25;;;;;;;15.22;100.00;96150.00;5053855;28;20052;-62
2023/05/28 04:33:19;;;;;;;4.80;2.35;;;;;;;15.32;100.00;96153.75;5053836;28;20095;-62
2023/05/28 04:35:46;;;;;;;2.22;2.03;;;;;;;15.37;99.67;96153.44;5053703;28;20146;-62
2023/05/28 04:38:13;;;;;;;2.35;2.15;;;;;;;15.34;97.84;96157.13;5053983;28;20053;-61
2023/05/28 04:40:41;;;;;;;2.33;2.10;;;;;;;15.34;97.46;96158.91;5053509;28;20099;-61
2023/05/28 04:43:08;;;;;;;2.80;2.15;;;;;;;15.35;98.19;96153.53;5053633;28;20064;-62
2023/05/28 04:45:37;;;;;;;3.03;2.00;;;;;;;15.43;97.99;96160.13;5053559;28;20053;-61
2023/05/28 04:48:06;;;;;;;3.67;2.00;;;;;;;15.41;96.55;96160.22;5053429;28;20513;-61
2023/05/28 04:50:35;;;;;;;3.83;2.00;;;;;;;15.39;94.70;96157.66;5053430;28;20052;-62
2023/05/28 04:53:02;;;;;;;5.53;2.22;;;;;;;15.38;96.05;96163.06;5053438;28;20041;-62
2023/05/28 04:55:29;;;;;;;3.90;1.98;;;;;;;15.40;95.54;96166.44;5053304;28;20053;-64
2023/05/28 04:57:56;;;;;;;2.70;2.30;;;;;;;15.48;95.70;96171.22;5053315;28;20099;-62
2023/05/28 05:00:27;;;;;;;3.45;2.47;;;;;;;15.47;96.82;96161.63;5053187;28;20447;-62
2023/05/28 05:02:54;;;;;;;6.90;2.20;;;;;;;15.57;96.07;96169.78;5053235;28;20060;-63
2023/05/28 05:05:21;;;;;;;2.47;1.80;;;;;;;15.61;94.49;96174.75;5053227;28;20052;-62
2023/05/28 05:07:51;;;;;;;3.92;2.38;;;;;;;15.60;95.22;96165.19;5053216;28;20052;-64
2023/05/28 05:10:19;;;;;;;8.98;2.33;;;;;;;15.64;97.75;96171.06;5052992;28;20103;-63
2023/05/28 05:12:46;;;;;;;5.05;2.40;;;;;;;15.58;96.35;96163.56;5053094;28;20482;-64
2023/05/28 05:15:13;;;;;;;2.58;2.38;;;;;;;15.61;97.27;96163.38;5053244;28;20067;-62
2023/05/28 05:17:41;;;;;;;2.78;2.20;;;;;;;15.77;98.24;96173.75;5053026;28;20048;-61
2023/05/28 05:20:09;;;;;;;4.22;1.92;;;;;;;15.90;96.64;96171.19;5053028;28;20055;-62
2023/05/28 05:22:37;;;;;;;3.65;2.40;;;;;;;16.02;94.78;96170.38;5053133;28;20087;-63
2023/05/28 05:25:07;;;;;;;4.00;2.20;;;;;;;16.14;94.97;96176.66;5052669;28;20049;-61
2023/05/28 05:27:36;;;;;;;3.40;2.35;;;;;;;16.30;93.25;96175.63;5052868;28;20052;-63
2023/05/28 05:30:03;;;;;;;2.67;2.05;;;;;;;16.37;90.18;96174.28;5052960;28;20049;-61
2023/05/28 05:32:31;;;;;;;2.70;2.20;;;;;;;16.44;90.52;96177.34;5052948;28;20045;-61
2023/05/28 05:34:58;;;;;;;2.65;2.00;;;;;;;16.42;89.33;96173.97;5052847;28;20094;-63
2023/05/28 05:37:25;;;;;;;3.60;2.33;;;;;;;16.46;91.00;96175.44;5053023;28;20053;-60
2023/05/28 05:39:52;;;;;;;2.63;2.17;;;;;;;16.46;88.06;96177.25;5052827;28;20450;-61
2023/05/28 05:42:21;;;;;;;4.10;2.53;;;;;;;16.55;91.56;96179.25;5053141;28;20045;-62
2023/05/28 05:44:49;;;;;;;2.65;1.95;;;;;;;16.56;88.03;96173.03;5053027;28;20041;-63
2023/05/28 05:47:17;;;;;;;2.50;2.10;;;;;;;16.67;90.49;96178.41;5052747;28;20049;-63
2023/05/28 05:49:44;;;;;;;3.60;2.15;;;;;;;16.79;90.62;96184.66;5052838;28;20051;-63
2023/05/28 05:52:12;;;;;;;2.92;2.15;;;;;;;16.84;88.78;96181.69;5052725;28;20060;-63
2023/05/28 05:54:42;;;;;;;5.28;2.20;;;;;;;16.91;89.69;96182.97;5052719;28;20060;-62
2023/05/28 05:57:11;;;;;;;2.95;2.42;;;;;;;16.93;85.30;96185.50;5052694;28;20095;-62
2023/05/28 05:59:41;;;;;;;3.13;2.30;;;;;;;17.03;88.50;96183.03;5052747;28;20127;-62
2023/05/28 06:02:08;;;;;;;3.58;2.10;;;;;;;17.21;86.46;96188.00;5052656;28;20103;-64
2023/05/28 06:04:36;;;;;;;3.83;2.15;;;;;;;17.26;85.10;96184.13;5052617;28;20045;-65
2023/05/28 06:07:04;;;;;;;6.95;2.63;;;;;;;17.47;83.92;96191.47;5052654;28;20052;-62
2023/05/28 06:09:33;;;;;;;5.30;2.40;;;;;;;17.76;82.37;96191.16;5052462;28;20076;-62
2023/05/28 06:12:01;;;;;;;3.22;2.40;;;;;;;17.87;80.55;96187.72;5052403;28;20057;-65
2023/05/28 06:14:29;;;;;;;5.03;2.20;;;;;;;17.73;80.97;96193.19;5052461;28;20103;-62
2023/05/28 06:16:57;;;;;;;5.05;2.15;;;;;;;17.80;81.65;96192.63;5052762;28;20055;-63
2023/05/28 06:19:25;;;;;;;2.38;2.15;;;;;;;18.00;81.71;96181.53;5052504;28;20052;-63
2023/05/28 06:21:53;;;;;;;5.63;2.22;;;;;;;18.25;81.41;96185.03;5052353;28;20075;-62
2023/05/28 06:24:21;;;;;;;3.00;2.00;;;;;;;18.34;81.09;96183.50;5052512;28;20095;-64
2023/05/28 06:26:48;;;;;;;3.22;2.63;;;;;;;18.30;78.94;96191.66;5052414;28;20079;-65
2023/05/28 06:29:16;;;;;;;5.45;2.60;;;;;;;18.16;80.06;96191.84;5052413;28;20076;-63
2023/05/28 06:31:43;;;;;;;3.53;2.10;;;;;;;18.16;80.65;96195.34;5052415;28;20049;-62
2023/05/28 06:34:12;;;;;;;2.22;2.03;;;;;;;18.05;80.96;96204.06;5052383;28;20045;-65
2023/05/28 06:36:40;;;;;;;2.17;1.98;;;;;;;17.98;80.10;96200.19;5052379;28;20056;-64
2023/05/28 06:39:08;;;;;;;3.70;2.28;;;;;;;17.98;81.97;96196.66;5055190;28;20494;-62
2023/05/28 06:41:35;;;;;;;3.17;2.67;;;;;;;18.11;82.59;96192.19;5055830;28;20068;-62
2023/05/28 06:44:03;;;;;;;4.65;2.13;;;;;;;18.23;79.12;96195.72;5055882;28;20380;-65
2023/05/28 06:46:33;;;;;;;3.45;2.20;;;;;;;18.24;77.64;96192.13;5055892;28;20410;-63
2023/05/28 06:49:01;;;;;;;3.60;2.40;;;;;;;18.27;78.44;96188.41;5055798;28;20045;-61
2023/05/28 06:51:40;;;;;;;5.05;2.45;;;;;;;18.30;79.55;96189.00;5055747;28;20110;-64
2023/05/28 06:54:10;;;;;;;6.75;2.35;;;;;;;18.25;76.35;96195.63;5055524;28;20044;-63
2023/05/28 06:56:39;;;;;;;3.15;2.58;;;;;;;18.08;76.04;96191.53;5055610;28;20045;-64
2023/05/28 06:59:07;;;;;;;5.13;2.67;;;;;;;17.99;78.82;96204.50;5055565;28;20047;-64
2023/05/28 07:01:35;;;;;;;4.30;2.65;;;;;;;17.76;78.12;96198.25;5055361;28;20060;-65
2023/05/28 07:04:04;;;;;;;3.83;2.55;;;;;;;17.71;78.32;96209.16;5055364;28;20486;-62
2023/05/28 07:06:34;;;;;;;4.10;2.67;;;;;;;17.64;78.91;96192.06;5055417;28;20103;-61
2023/05/28 07:09:01;;;;;;;;;;;;;;;17.67;78.06;96197.94;5056032;28;20505;-65
2023/05/28 07:11:30;;;;;;;9.80;3.00;;;;;;;17.75;79.26;96193.91;5055220;28;19924;-62
2023/05/28 07:13:57;;;;;;;5.13;3.15;;;;;;;17.86;80.16;96190.47;5055259;28;20128;-65
2023/05/28 07:16:24;;;;;;;6.88;3.35;;;;;;;18.03;79.79;96186.59;5055139;28;20056;-65
2023/05/28 07:18:53;;;;;;;4.15;2.85;;;;;;;18.12;77.85;96182.47;5055157;28;20056;-64
2023/05/28 07:21:21;;;;;;;4.95;2.90;;;;;;;18.24;77.10;96186.00;5055153;28;20053;-65
2023/05/28 07:23:59;;;;;;;4.53;2.60;;;;;;;18.41;78.17;96185.56;5055096;28;20055;-63
2023/05/28 07:26:27;;;;;;;6.88;2.72;;;;;;;18.69;77.00;96187.91;5055100;28;20099;-66
2023/05/28 07:29:01;;;;;;;5.40;3.22;;;;;;;18.86;77.33;96183.97;5054980;28;20063;-63
2023/05/28 07:31:35;;;;;;;3.88;2.65;;;;;;;19.10;74.25;96185.69;5054933;28;20049;-62
2023/05/28 07:34:07;;;;;;;5.65;3.25;;;;;;;19.37;73.81;96181.81;5054817;28;20053;-62
2023/05/28 07:36:34;;;;;;;7.15;3.30;;;;;;;19.66;70.87;96177.81;5054974;28;20056;-61
2023/05/28 07:39:05;;;;;;;11.43;3.28;;;;;;;19.90;66.82;96184.75;5054891;28;20052;-63
2023/05/28 07:41:34;;;;;;;;;;;;;;;19.97;69.03;96177.94;5055267;28;20079;-65
2023/05/28 07:44:02;;;;;;;5.32;3.20;;;;;;;20.18;67.21;96180.69;5054691;28;19927;-65
2023/05/28 07:46:31;;;;;;;5.32;3.65;;;;;;;20.43;67.73;96183.94;5054550;28;20055;-67
2023/05/28 07:49:02;;;;;;;5.43;3.50;;;;;;;20.71;65.83;96183.44;5054133;28;20059;-63
2023/05/28 07:51:33;;;;;;;6.53;3.47;;;;;;;20.70;61.90;96179.91;5054498;28;20106;-63
2023/05/28 07:54:07;;;;;;;5.07;3.42;;;;;;;20.78;66.20;96176.63;5054445;28;20442;-61
2023/05/28 07:56:36;;;;;;;6.40;3.03;;;;;;;20.98;66.00;96182.03;5054461;28;20540;-65
2023/05/28 07:59:06;;;;;;;7.63;3.17;;;;;;;21.04;63.02;96183.34;5054409;28;20052;-64
2023/05/28 08:01:36;;;;;;;5.95;3.35;;;;;;;20.90;67.46;96181.88;5054371;28;20053;-62
2023/05/28 08:04:07;;;;;;;6.47;3.77;;;;;;;20.85;63.43;96179.56;5054304;28;20124;-64
2023/05/28 08:06:41;;;;;;;10.07;3.63;;;;;;;20.79;62.42;96177.44;5054260;28;20290;-61
2023/05/28 08:09:13;;;;;;;8.85;3.25;;;;;;;20.67;65.45;96174.88;5054361;28;20487;-63
2023/05/28 08:11:45;;;;;;;5.30;3.50;;;;;;;20.49;64.16;96169.28;5053734;28;20052;-65
2023/05/28 08:14:14;;;;;;;6.10;3.28;;;;;;;20.43;65.35;96191.91;5054044;28;20049;-63
2023/05/28 08:16:44;;;;;;;5.35;3.53;;;;;;;20.25;66.77;96185.47;5053994;28;20045;-63
2023/05/28 08:19:12;;;;;;;7.13;3.05;;;;;;;20.31;67.73;96187.59;5054140;28;20081;-62
2023/05/28 08:21:41;;;;;;;4.90;2.75;;;;;;;20.73;65.34;96181.47;5054085;28;20059;-63
2023/05/28 08:24:23;;;;;;;4.78;3.60;;;;;;;21.20;63.49;96183.69;5053925;28;20045;-66
2023/05/28 08:26:52;;;;;;;6.47;3.58;;;;;;;21.78;63.94;96178.72;5053620;28;20536;-63
2023/05/28 08:29:30;;;;;;;7.90;3.45;;;;;;;22.04;61.71;96180.00;5053749;28;20080;-64
2023/05/28 08:31:58;;;;;;;5.75;3.17;;;;;;;21.98;57.23;96189.38;5053787;28;20423;-62
2023/05/28 08:34:27;;;;;;;3.92;3.33;;;;;;;21.87;60.19;96174.38;5053550;28;20045;-63
2023/05/28 08:36:56;;;;;;;5.07;3.13;;;;;;;22.15;58.80;96184.34;5053630;28;20049;-61
2023/05/28 08:39:28;;;;;;;4.75;2.97;;;;;;;22.08;60.57;96171.59;5053607;28;20564;-65
2023/05/28 08:42:01;;;;;;;4.07;2.90;;;;;;;21.75;57.99;96178.97;5053504;28;20473;-63
2023/05/28 08:44:33;;;;;;;8.55;3.50;;;;;;;21.24;59.80;96178.94;5053486;28;20092;-63
2023/05/28 08:47:02;;;;;;;7.32;3.28;;;;;;;21.12;62.83;96167.56;5053518;28;20049;-63
2023/05/28 08:49:34;;;;;;;6.63;4.00;;;;;;;20.98;62.83;96159.94;5053651;28;20461;-65
2023/05/28 08:52:03;;;;;;;11.13;3.85;;;;;;;20.76;62.23;96154.63;5053073;28;20045;-61
2023/05/28 08:54:34;;;;;;;7.72;3.60;;;;;;;20.81;62.99;96154.25;5053176;28;20052;-61
2023/05/28 08:57:05;;;;;;;7.40;3.67;;;;;;;20.95;60.33;96143.28;5052878;28;20124;-65
2023/05/28 08:59:34;;;;;;;3.47;2.88;;;;;;;21.21;61.59;96144.66;5053098;28;20102;-65
2023/05/28 09:02:07;;;;;;;5.20;3.20;;;;;;;21.46;60.18;96158.41;5052613;28;20053;-65
2023/05/28 09:04:37;;;;;;;8.23;3.53;;;;;;;21.69;61.03;96159.06;5053174;28;20048;-61
2023/05/28 09:07:09;;;;;;;6.70;3.23;;;;;;;22.18;62.44;96152.09;5053207;28;20411;-62
2023/05/28 09:09:40;;;;;;;10.35;3.67;;;;;;;22.32;57.36;96162.34;5053116;28;20493;-62
2023/05/28 09:12:12;;;;;;;7.63;3.60;;;;;;;22.46;58.05;96166.38;5052854;28;20103;-62
2023/05/28 09:14:45;;;;;;;13.05;3.75;;;;;;;22.54;57.62;96155.00;5053050;28;20088;-61
2023/05/28 09:17:16;;;;;;;7.25;3.45;;;;;;;21.99;55.34;96163.59;5053090;28;20560;-61
2023/05/28 09:19:53;;;;;;;7.78;3.65;;;;;;;21.43;56.43;96164.03;5053399;28;20065;-63
2023/05/28 09:22:22;;;;;;;5.90;3.60;;;;;;;20.98;56.28;96165.28;5052499;28;20410;-63
2023/05/28 09:24:56;;;;;;;11.10;3.97;;;;;;;20.94;58.62;96154.91;5052526;28;20124;-63
2023/05/28 09:27:30;;;;;;;10.30;3.78;;;;;;;21.27;57.64;96152.09;5051505;28;20040;-61
2023/05/28 09:30:09;;;;;;;9.45;4.07;;;;;;;21.34;59.19;96160.34;5051554;28;20045;-62
2023/05/28 09:32:40;;;;;;;5.90;4.00;;;;;;;21.00;59.27;96160.66;5047418;28;20049;-64
2023/05/28 09:35:10;;;;;;;6.72;3.88;;;;;;;20.53;59.22;96168.06;5040106;28;20061;-63
2023/05/28 09:37:47;;;;;;;9.45;4.70;;;;;;;20.39;60.02;96157.75;5040976;28;20155;-60
2023/05/28 09:40:18;;;;;;;10.05;4.65;;;;;;;20.47;60.56;96152.66;5035436;28;20045;-63
2023/05/28 09:42:48;;;;;;;10.95;4.95;;;;;;;20.65;61.24;96152.06;5033171;28;20498;-64
2023/05/28 09:45:24;;;;;;;11.60;4.68;;;;;;;20.68;61.68;96146.50;5032795;28;20479;-61
2023/05/28 09:47:53;;;;;;;7.45;4.50;;;;;;;20.35;60.19;96145.72;5035349;28;20075;-63
2023/05/28 09:50:21;;;;;;;9.13;4.10;;;;;;;20.26;61.22;96144.69;5041937;28;20045;-63
2023/05/28 09:52:50;;;;;;;8.00;4.25;;;;;;;20.39;61.04;96142.69;5052786;28;20534;-61
2023/05/28 09:55:21;;;;;;;7.57;4.10;;;;;;;20.49;60.13;96141.88;5052777;28;20076;-62
2023/05/28 09:58:04;;;;;;;10.95;4.35;;;;;;;20.59;61.15;96137.50;5051578;28;20502;-60
2023/05/28 10:00:38;;;;;;;5.68;3.60;;;;;;;20.77;59.08;96131.56;5052881;28;20475;-60
2023/05/28 10:03:15;;;;;;;6.65;4.50;;;;;;;20.90;60.57;96129.56;5052461;28;20052;-64
2023/05/28 10:05:45;;;;;;;12.40;4.45;;;;;;;21.06;60.00;96122.91;5043991;28;20129;-63
2023/05/28 10:08:21;;;;;;;6.13;4.18;;;;;;;21.29;59.90;96125.34;5032405;28;20410;-62
2023/05/28 10:10:54;;;;;;;7.50;4.15;;;;;;;21.09;57.31;96133.25;5031653;28;20055;-61
2023/05/28 10:13:28;;;;;;;14.30;4.22;;;;;;;20.74;57.52;96137.97;5036119;28;20434;-61
2023/05/28 10:16:01;;;;;;;5.60;4.13;;;;;;;20.63;60.17;96144.22;5036096;28;20388;-63
2023/05/28 10:18:31;;;;;;;4.35;3.70;;;;;;;20.39;59.13;96140.03;5037215;28;20049;-63
2023/05/28 10:21:01;;;;;;;9.05;4.55;;;;;;;20.18;62.06;96130.25;5036248;28;20049;-61
2023/05/28 10:23:31;;;;;;;15.73;5.90;;;;;;;20.12;61.63;96122.78;5036439;28;20474;-61
2023/05/28 10:26:02;;;;;;;12.05;5.15;;;;;;;20.11;60.95;96115.81;5036323;28;20108;-62
2023/05/28 10:28:34;;;;;;;8.50;5.05;;;;;;;20.27;61.93;96094.09;5036217;28;20045;-62
2023/05/28 10:31:10;;;;;;;6.93;4.03;;;;;;;20.78;60.62;96098.69;5036185;28;20049;-64
2023/05/28 10:33:41;;;;;;;6.00;3.70;;;;;;;21.01;57.70;96099.38;5036124;28;20513;-61
2023/05/28 10:36:13;;;;;;;15.55;6.82;;;;;;;21.03;59.05;96104.56;5036147;28;20137;-62
2023/05/28 10:38:58;;;;;;;10.48;4.15;;;;;;;20.73;57.98;96119.50;5035963;28;20049;-64
2023/05/28 10:41:33;;;;;;;9.57;4.35;;;;;;;20.25;63.78;96124.38;5042371;28;20047;-64
2023/05/28 10:44:11;;;;;;;10.18;5.22;;;;;;;19.66;69.32;96124.75;5055162;28;20490;-63
2023/05/28 10:46:41;;;;;;;7.10;4.97;;;;;;;18.94;72.12;96131.19;5044091;28;20495;-60
2023/05/28 10:49:23;;;;;;;10.10;5.65;;;;;;;17.91;77.25;96156.59;5036746;28;20045;-60
2023/05/28 10:52:03;;;;;;;25.35;5.63;;;;;;;17.35;77.92;96165.91;5035627;28;20049;-59
2023/05/28 10:54:46;;;;;;;30.70;6.05;;;;;;;16.74;76.19;96143.69;5035698;28;20144;-59
2023/05/28 10:57:18;;;;;;;23.35;5.38;;;;;;;16.30;81.64;96151.88;5035595;28;20408;-58
2023/05/28 10:59:52;;;;;;;9.73;4.22;;;;;;;16.03;86.49;96151.00;5039351;28;20045;-59
2023/05/28 11:02:36;;;;;;;6.45;3.83;;;;;;;15.95;88.22;96140.06;5055377;28;20053;-59
2023/05/28 11:05:08;;;;;;;12.07;4.78;;;;;;;15.95;89.67;96134.78;5051208;28;20052;-59
2023/05/28 11:07:38;;;;;;;6.07;4.00;;;;;;;15.99;90.22;96140.75;5055343;28;20462;-59
2023/05/28 11:10:09;;;;;;;8.40;4.50;;;;;;;15.95;91.77;96149.78;5055418;28;20045;-60
2023/05/28 11:12:40;;;;;;;;;;;;;;;15.91;91.07;96138.59;5055168;28;20136;-59
2023/05/28 11:15:10;;;;;;;6.85;4.35;;;;;;;15.96;91.84;96133.00;5055206;28;19920;-59
2023/05/28 11:17:41;;;;;;;6.97;3.90;;;;;;;16.01;91.25;96137.06;5055149;28;20045;-59
2023/05/28 11:20:24;;;;;;;7.20;4.13;;;;;;;16.09;91.63;96133.06;5038842;28;20053;-60
2023/05/28 11:22:57;;;;;;;9.15;4.45;;;;;;;16.16;91.22;96132.56;5034797;28;20053;-60
2023/05/28 11:25:30;;;;;;;5.35;4.22;;;;;;;16.29;91.40;96124.63;5034776;28;20053;-59
2023/05/28 11:28:03;;;;;;;13.77;4.75;;;;;;;16.38;92.58;96122.34;5034085;28;20046;-59
2023/05/28 11:30:34;;;;;;;6.00;3.95;;;;;;;16.41;91.62;96122.13;5036104;28;20042;-59
2023/05/28 11:33:04;;;;;;;5.10;4.00;;;;;;;16.59;91.55;96125.31;5034785;28;20127;-59
2023/05/28 11:35:32;;;;;;;11.52;5.82;;;;;;;16.72;90.75;96124.44;5035003;28;20402;-60
2023/05/28 11:38:02;;;;;;;6.75;4.47;;;;;;;16.74;88.42;96128.66;5049985;28;20076;-60
2023/05/28 11:40:37;;;;;;;12.25;4.65;;;;;;;16.87;89.61;96128.66;5036950;28;20049;-60
2023/05/28 11:43:15;;;;;;;9.13;4.72;;;;;;;17.01;89.91;96143.53;5034734;28;20049;-59